Time;durP1;ratioP1;P1;durP2;ratioP2;P2;SDS_P1;SDS_P2;PMS_P1;PMS_P2;Temp;Humidity;BMP_temperature;BMP_pressure;BME280_temperature;BME280_humidity;BME280_pressure;Samples;Min_cycle;Max_cycle;Signal;HPM_P1;HPM_P2
2023/12/07 00:00:41;;;;;;;;;;;;;;;;;;5058189;28;19928;-72
2023/12/07 00:03:08;;;;;;;;;;;;;;;;;;5054657;28;20332;-72
2023/12/07 00:05:34;;;;;;;;;;;;;;;;;;5062759;28;19925;-72
2023/12/07 00:08:01;;;;;;;;;;;;;;;;;;5056616;28;20020;-72
2023/12/07 00:10:27;;;;;;;;;;;;;;;;;;5061470;28;19960;-72
2023/12/07 00:12:54;;;;;;;;;;;;;;;;;;5060605;28;20328;-72
2023/12/07 00:15:20;;;;;;;;;;;;;;;;;;5061287;28;19931;-73
2023/12/07 00:17:46;;;;;;;;;;;;;;;;;;5061211;28;20030;-72
2023/12/07 00:20:13;;;;;;;;;;;;;;;;;;5063899;28;19931;-73
2023/12/07 00:22:39;;;;;;;;;;;;;;;;;;5058936;28;19935;-74
2023/12/07 00:25:06;;;;;;;;;;;;;;;;;;5062712;28;19925;-72
2023/12/07 00:27:32;;;;;;;;;;;;;;;;;;5060981;28;20466;-71
2023/12/07 00:29:58;;;;;;;;;;;;;;;;;;5065764;28;20024;-72
2023/12/07 00:32:25;;;;;;;;;;;;;;;;;;5062440;28;19935;-71
2023/12/07 00:34:52;;;;;;;;;;;;;;;;;;5056632;28;19948;-72
2023/12/07 00:37:18;;;;;;;;;;;;;;;;;;5061954;28;20320;-71
2023/12/07 00:39:45;;;;;;;;;;;;;;;;;;5060213;28;19990;-74
2023/12/07 00:42:11;;;;;;;;;;;;;;;;;;5066096;28;19929;-72
2023/12/07 00:44:38;;;;;;;;;;;;;;;;;;5066999;28;19924;-72
2023/12/07 00:47:04;;;;;;;;;;;;;;;;;;5059711;28;19943;-71
2023/12/07 00:49:31;;;;;;;;;;;;;;;;;;5060311;28;19935;-73
2023/12/07 00:51:57;;;;;;;;;;;;;;;;;;5060410;28;19933;-72
2023/12/07 00:54:23;;;;;;;;;;;;;;;;;;5058621;28;19959;-73
2023/12/07 00:56:51;;;;;;;;;;;;;;;;;;5059658;28;20572;-72
2023/12/07 00:59:17;;;;;;;;;;;;;;;;;;5061523;28;19932;-71
2023/12/07 01:01:43;;;;;;;;;;;;;;;;;;5062124;28;19925;-73
2023/12/07 01:04:10;;;;;;;;;;;;;;;;;;5067640;28;19928;-72
2023/12/07 01:06:37;;;;;;;;;;;;;;;;;;5062686;28;19932;-74
2023/12/07 01:09:03;;;;;;;;;;;;;;;;;;5060564;28;19924;-72
2023/12/07 01:11:30;;;;;;;;;;;;;;;;;;5067161;28;20397;-73
2023/12/07 01:13:56;;;;;;;;;;;;;;;;;;5061965;28;19968;-73
2023/12/07 01:16:24;;;;;;;;;;;;;;;;;;5055052;28;19931;-71
2023/12/07 01:18:51;;;;;;;;;;;;;;;;;;5060861;28;19928;-73
2023/12/07 01:21:17;;;;;;;;;;;;;;;;;;5051360;28;19933;-72
2023/12/07 01:23:44;;;;;;;;;;;;;;;;;;5066490;28;19990;-72
2023/12/07 01:26:10;;;;;;;;;;;;;;;;;;5071162;28;19931;-73
2023/12/07 01:28:36;;;;;;;;;;;;;;;;;;5064286;28;20016;-71
2023/12/07 01:31:04;;;;;;;;;;;;;;;;;;5072096;28;19954;-72
2023/12/07 01:33:30;;;;;;;;;;;;;;;;;;5066382;28;19925;-72
2023/12/07 01:35:56;;;;;;;;;;;;;;;;;;5063648;28;19950;-73
2023/12/07 01:38:23;;;;;;;;;;;;;;;;;;5061288;28;20278;-73
2023/12/07 01:40:49;;;;;;;;;;;;;;;;;;5061524;28;19925;-71
2023/12/07 01:43:16;;;;;;;;;;;;;;;;;;5064073;28;19931;-73
2023/12/07 01:45:42;;;;;;;;;;;;;;;;;;5061510;28;20126;-73
2023/12/07 01:48:08;;;;;;;;;;;;;;;;;;5063933;28;19994;-72
2023/12/07 01:50:36;;;;;;;;;;;;;;;;;;5070845;28;19935;-72
2023/12/07 01:53:02;;;;;;;;;;;;;;;;;;5065831;28;19924;-72
2023/12/07 01:55:31;;;;;;;;;;;;;;;;;;5070399;28;19978;-74
2023/12/07 01:57:57;;;;;;;;;;;;;;;;;;5065446;28;19925;-73
2023/12/07 02:00:24;;;;;;;;;;;;;;;;;;5054147;28;19924;-74
2023/12/07 02:02:50;;;;;;;;;;;;;;;;;;5062683;28;19935;-73
2023/12/07 02:05:17;;;;;;;;;;;;;;;;;;5066139;28;20337;-72
2023/12/07 02:07:43;;;;;;;;;;;;;;;;;;5066218;28;20111;-73
2023/12/07 02:10:09;;;;;;;;;;;;;;;;;;5058729;28;20360;-73
2023/12/07 02:12:36;;;;;;;;;;;;;;;;;;5070337;28;19960;-74
2023/12/07 02:15:02;;;;;;;;;;;;;;;;;;5062607;28;20598;-73
2023/12/07 02:17:28;;;;;;;;;;;;;;;;;;5059392;28;20381;-72
2023/12/07 02:19:55;;;;;;;;;;;;;;;;;;5059440;28;19924;-73
2023/12/07 02:22:21;;;;;;;;;;;;;;;;;;5061461;28;19928;-71
2023/12/07 02:24:48;;;;;;;;;;;;;;;;;;5062282;28;19935;-73
2023/12/07 02:27:14;;;;;;;;;;;;;;;;;;5064134;28;20002;-73
2023/12/07 02:29:41;;;;;;;;;;;;;;;;;;5059621;28;20011;-72
2023/12/07 02:32:07;;;;;;;;;;;;;;;;;;5062869;28;19933;-72
2023/12/07 02:34:33;;;;;;;;;;;;;;;;;;5066015;28;19931;-71
2023/12/07 02:37:00;;;;;;;;;;;;;;;;;;5069062;28;20408;-72
2023/12/07 02:39:26;;;;;;;;;;;;;;;;;;5059628;28;20386;-74
2023/12/07 02:41:53;;;;;;;;;;;;;;;;;;5058085;28;19925;-72
2023/12/07 02:44:19;;;;;;;;;;;;;;;;;;5054654;28;20024;-74
2023/12/07 02:46:46;;;;;;;;;;;;;;;;;;5063156;28;20397;-72
2023/12/07 02:49:12;;;;;;;;;;;;;;;;;;5059819;28;19939;-73
2023/12/07 02:51:39;;;;;;;;;;;;;;;;;;5063365;28;19928;-72
2023/12/07 02:54:05;;;;;;;;;;;;;;;;;;5067709;28;19924;-73
2023/12/07 02:56:31;;;;;;;;;;;;;;;;;;5063055;28;19925;-73
2023/12/07 02:58:58;;;;;;;;;;;;;;;;;;5060445;28;19974;-74
2023/12/07 03:01:24;;;;;;;;;;;;;;;;;;5063794;28;19924;-74
2023/12/07 03:03:50;;;;;;;;;;;;;;;;;;5059341;28;19925;-73
2023/12/07 03:06:19;;;;;;;;;;;;;;;;;;5064253;28;20648;-73
2023/12/07 03:08:45;;;;;;;;;;;;;;;;;;5070919;28;19925;-72
2023/12/07 03:11:12;;;;;;;;;;;;;;;;;;5062510;28;19924;-73
2023/12/07 03:13:38;;;;;;;;;;;;;;;;;;5059667;28;20377;-71
2023/12/07 03:16:05;;;;;;;;;;;;;;;;;;5064885;28;19939;-72
2023/12/07 03:18:31;;;;;;;;;;;;;;;;;;5061292;28;20023;-73
2023/12/07 03:20:58;;;;;;;;;;;;;;;;;;5062650;28;20325;-74
2023/12/07 03:23:24;;;;;;;;;;;;;;;;;;5061374;28;20297;-71
2023/12/07 03:25:51;;;;;;;;;;;;;;;;;;5068273;28;19932;-73
2023/12/07 03:28:17;;;;;;;;;;;;;;;;;;5052904;28;19933;-72
2023/12/07 03:30:44;;;;;;;;;;;;;;;;;;5056658;28;20030;-73
2023/12/07 03:33:10;;;;;;;;;;;;;;;;;;5067531;28;19947;-73
2023/12/07 03:35:36;;;;;;;;;;;;;;;;;;5068366;28;20097;-71
2023/12/07 03:38:03;;;;;;;;;;;;;;;;;;5064362;28;19929;-71
2023/12/07 03:40:29;;;;;;;;;;;;;;;;;;5063841;28;19925;-72
2023/12/07 03:42:56;;;;;;;;;;;;;;;;;;5056389;28;19925;-72
2023/12/07 03:45:23;;;;;;;;;;;;;;;;;;5056172;28;19924;-72
2023/12/07 03:47:49;;;;;;;;;;;;;;;;;;5052597;28;19935;-76
2023/12/07 03:50:18;;;;;;;;;;;;;;;;;;5065404;28;20030;-72
2023/12/07 03:52:44;;;;;;;;;;;;;;;;;;5068139;28;19975;-75
2023/12/07 03:55:11;;;;;;;;;;;;;;;;;;5057706;28;19954;-74
2023/12/07 03:57:37;;;;;;;;;;;;;;;;;;5058813;28;20331;-74
2023/12/07 04:00:07;;;;;;;;;;;;;;;;;;5063630;28;19929;-72
2023/12/07 04:02:33;;;;;;;;;;;;;;;;;;5061305;28;19954;-72
2023/12/07 04:05:01;;;;;;;;;;;;;;;;;;5046061;28;19925;-73
2023/12/07 04:07:29;;;;;;;;;;;;;;;;;;5050720;28;19961;-74
2023/12/07 04:09:57;;;;;;;;;;;;;;;;;;5058501;28;19924;-73
2023/12/07 04:12:23;;;;;;;;;;;;;;;;;;5060372;28;19932;-74
2023/12/07 04:14:51;;;;;;;;;;;;;;;;;;5057027;28;19929;-72
2023/12/07 04:17:17;;;;;;;;;;;;;;;;;;5062620;28;19936;-75
2023/12/07 04:19:44;;;;;;;;;;;;;;;;;;5061165;28;20373;-75
2023/12/07 04:22:10;;;;;;;;;;;;;;;;;;5063768;28;19928;-76
2023/12/07 04:24:37;;;;;;;;;;;;;;;;;;5059180;28;20439;-76
2023/12/07 04:27:03;;;;;;;;;;;;;;;;;;5052194;28;20423;-77
2023/12/07 04:29:29;;;;;;;;;;;;;;;;;;5057053;28;20579;-76
2023/12/07 04:31:56;;;;;;;;;;;;;;;;;;5059595;28;19931;-76
2023/12/07 04:34:22;;;;;;;;;;;;;;;;;;5064180;28;19924;-74
2023/12/07 04:36:48;;;;;;;;;;;;;;;;;;5066741;28;19929;-75
2023/12/07 04:39:17;;;;;;;;;;;;;;;;;;5061934;28;19924;-75
2023/12/07 04:41:44;;;;;;;;;;;;;;;;;;5069706;28;20461;-75
2023/12/07 04:44:10;;;;;;;;;;;;;;;;;;5062612;28;19925;-76
2023/12/07 04:46:36;;;;;;;;;;;;;;;;;;5060003;28;20669;-74
2023/12/07 04:49:03;;;;;;;;;;;;;;;;;;5058573;28;19929;-75
2023/12/07 04:51:29;;;;;;;;;;;;;;;;;;5067038;28;20027;-76
2023/12/07 04:53:56;;;;;;;;;;;;;;;;;;5067863;28;19925;-76
2023/12/07 04:56:31;;;;;;;;;;;;;;;;;;5065997;28;19929;-74
2023/12/07 04:58:58;;;;;;;;;;;;;;;;;;5055318;28;19928;-76
2023/12/07 05:01:24;;;;;;;;;;;;;;;;;;5063609;28;19924;-76
2023/12/07 05:03:51;;;;;;;;;;;;;;;;;;5070191;28;19929;-76
2023/12/07 05:06:17;;;;;;;;;;;;;;;;;;5065328;28;19925;-75
2023/12/07 05:08:43;;;;;;;;;;;;;;;;;;5072736;28;19928;-76
2023/12/07 05:11:10;;;;;;;;;;;;;;;;;;5063590;28;19929;-76
2023/12/07 05:13:36;;;;;;;;;;;;;;;;;;5072658;28;19971;-75
2023/12/07 05:16:03;;;;;;;;;;;;;;;;;;5067235;28;19936;-76
2023/12/07 05:18:30;;;;;;;;;;;;;;;;;;5069283;28;19925;-76
2023/12/07 05:20:56;;;;;;;;;;;;;;;;;;5060821;28;20011;-74
2023/12/07 05:23:23;;;;;;;;;;;;;;;;;;5066733;28;19925;-76
2023/12/07 05:25:49;;;;;;;;;;;;;;;;;;5062998;28;19925;-75
2023/12/07 05:28:15;;;;;;;;;;;;;;;;;;5069894;28;19928;-76
2023/12/07 05:30:42;;;;;;;;;;;;;;;;;;5064334;28;19925;-74
2023/12/07 05:33:10;;;;;;;;;;;;;;;;;;5064734;28;19974;-76
2023/12/07 05:35:36;;;;;;;;;;;;;;;;;;5061212;28;19929;-75
2023/12/07 05:38:03;;;;;;;;;;;;;;;;;;5066505;28;19929;-76
2023/12/07 05:40:30;;;;;;;;;;;;;;;;;;5066285;28;19925;-75
2023/12/07 05:42:56;;;;;;;;;;;;;;;;;;5062651;28;20014;-75
2023/12/07 05:45:23;;;;;;;;;;;;;;;;;;5065067;28;19971;-76
2023/12/07 05:47:49;;;;;;;;;;;;;;;;;;5067599;28;19924;-76
2023/12/07 05:50:15;;;;;;;;;;;;;;;;;;5065357;28;19932;-76
2023/12/07 05:52:42;;;;;;;;;;;;;;;;;;5062766;28;20002;-75
2023/12/07 05:55:08;;;;;;;;;;;;;;;;;;5064082;28;19925;-75
2023/12/07 05:57:35;;;;;;;;;;;;;;;;;;5064393;28;19956;-76
2023/12/07 06:00:02;;;;;;;;;;;;;;;;;;5068082;28;20377;-74
2023/12/07 06:02:37;;;;;;;;;;;;;;;;;;5063533;28;20055;-76
2023/12/07 06:05:06;;;;;;;;;;;;;;;;;;5064086;28;19924;-77
2023/12/07 06:07:33;;;;;;;;;;;;;;;;;;5063751;28;19928;-76
2023/12/07 06:10:00;;;;;;;;;;;;;;;;;;5053756;28;20309;-76
2023/12/07 06:12:26;;;;;;;;;;;;;;;;;;5063269;28;19977;-76
2023/12/07 06:14:56;;;;;;;;;;;;;;;;;;5064482;28;19935;-76
2023/12/07 06:17:22;;;;;;;;;;;;;;;;;;5062059;28;19925;-76
2023/12/07 06:19:48;;;;;;;;;;;;;;;;;;5062924;28;19951;-75
2023/12/07 06:22:15;;;;;;;;;;;;;;;;;;5050773;28;19932;-77
2023/12/07 06:24:41;;;;;;;;;;;;;;;;;;5063533;28;20344;-75
2023/12/07 06:27:09;;;;;;;;;;;;;;;;;;5065414;28;20034;-74
2023/12/07 06:29:36;;;;;;;;;;;;;;;;;;5064593;28;19928;-76
2023/12/07 06:32:03;;;;;;;;;;;;;;;;;;5063942;28;19925;-76
2023/12/07 06:34:30;;;;;;;;;;;;;;;;;;5045477;28;19971;-74
2023/12/07 06:36:57;;;;;;;;;;;;;;;;;;5065489;28;19956;-76
2023/12/07 06:39:23;;;;;;;;;;;;;;;;;;5063288;28;19932;-76
2023/12/07 06:41:50;;;;;;;;;;;;;;;;;;5064316;28;20004;-76
2023/12/07 06:44:16;;;;;;;;;;;;;;;;;;5061458;28;19931;-77
2023/12/07 06:46:42;;;;;;;;;;;;;;;;;;5062556;28;20011;-76
2023/12/07 06:49:09;;;;;;;;;;;;;;;;;;5066633;28;19932;-75
2023/12/07 06:51:35;;;;;;;;;;;;;;;;;;5071319;28;19924;-76
2023/12/07 06:54:02;;;;;;;;;;;;;;;;;;5063889;28;19931;-76
2023/12/07 06:56:29;;;;;;;;;;;;;;;;;;5070709;28;19928;-76
2023/12/07 06:58:56;;;;;;;;;;;;;;;;;;5068539;28;19947;-75
2023/12/07 07:01:22;;;;;;;;;;;;;;;;;;5062467;28;19925;-77
2023/12/07 07:03:48;;;;;;;;;;;;;;;;;;5062654;28;19928;-76
2023/12/07 07:06:15;;;;;;;;;;;;;;;;;;5063673;28;19932;-76
2023/12/07 07:08:41;;;;;;;;;;;;;;;;;;5053459;28;19924;-77
2023/12/07 07:11:08;;;;;;;;;;;;;;;;;;5062627;28;19924;-76
2023/12/07 07:13:34;;;;;;;;;;;;;;;;;;5059880;28;19931;-77
2023/12/07 07:16:00;;;;;;;;;;;;;;;;;;5061612;28;20000;-75
2023/12/07 07:18:27;;;;;;;;;;;;;;;;;;5058309;28;19954;-76
2023/12/07 07:20:54;;;;;;;;;;;;;;;;;;5059380;28;20070;-77
2023/12/07 07:23:20;;;;;;;;;;;;;;;;;;5062594;28;19948;-76
2023/12/07 07:25:47;;;;;;;;;;;;;;;;;;5063249;28;19991;-76
2023/12/07 07:28:14;;;;;;;;;;;;;;;;;;5070906;28;19924;-76
2023/12/07 07:30:40;;;;;;;;;;;;;;;;;;5058479;28;19931;-77
2023/12/07 07:33:06;;;;;;;;;;;;;;;;;;5068991;28;19983;-76
2023/12/07 07:35:33;;;;;;;;;;;;;;;;;;5059874;28;19924;-75
2023/12/07 07:37:59;;;;;;;;;;;;;;;;;;5056467;28;19928;-76
2023/12/07 07:40:26;;;;;;;;;;;;;;;;;;5058547;28;19935;-75
2023/12/07 07:42:52;;;;;;;;;;;;;;;;;;5061193;28;19925;-77
2023/12/07 07:45:18;;;;;;;;;;;;;;;;;;5056838;28;19945;-76
2023/12/07 07:47:45;;;;;;;;;;;;;;;;;;5067464;28;19971;-75
2023/12/07 07:50:11;;;;;;;;;;;;;;;;;;5058661;28;19924;-76
2023/12/07 07:52:39;;;;;;;;;;;;;;;;;;5067706;28;19935;-76
2023/12/07 07:55:07;;;;;;;;;;;;;;;;;;5064239;28;19928;-77
2023/12/07 07:57:33;;;;;;;;;;;;;;;;;;5057470;28;19933;-76
2023/12/07 07:59:59;;;;;;;;;;;;;;;;;;5059029;28;19929;-76
2023/12/07 08:02:27;;;;;;;;;;;;;;;;;;5063371;28;19935;-78
2023/12/07 08:04:53;;;;;;;;;;;;;;;;;;5065994;28;19931;-73
2023/12/07 08:07:20;;;;;;;;;;;;;;;;;;5069712;28;20019;-76
2023/12/07 08:09:46;;;;;;;;;;;;;;;;;;5061136;28;19924;-75
2023/12/07 08:12:15;;;;;;;;;;;;;;;;;;5060850;28;19959;-76
2023/12/07 08:14:43;;;;;;;;;;;;;;;;;;5061629;28;19924;-77
2023/12/07 08:17:10;;;;;;;;;;;;;;;;;;5067856;28;20328;-76
2023/12/07 08:19:37;;;;;;;;;;;;;;;;;;5062199;28;19959;-76
2023/12/07 08:22:04;;;;;;;;;;;;;;;;;;5070689;28;20293;-75
2023/12/07 08:24:30;;;;;;;;;;;;;;;;;;5065225;28;19982;-77
2023/12/07 08:26:57;;;;;;;;;;;;;;;;;;5062733;28;19932;-76
2023/12/07 08:29:23;;;;;;;;;;;;;;;;;;5067433;28;19928;-78
2023/12/07 08:31:49;;;;;;;;;;;;;;;;;;5060659;28;19925;-76
2023/12/07 08:34:16;;;;;;;;;;;;;;;;;;5067425;28;19954;-76
2023/12/07 08:36:42;;;;;;;;;;;;;;;;;;5066148;28;19978;-76
2023/12/07 08:39:09;;;;;;;;;;;;;;;;;;5064439;28;19928;-76
2023/12/07 08:41:36;;;;;;;;;;;;;;;;;;5053804;28;19931;-76
2023/12/07 08:44:03;;;;;;;;;;;;;;;;;;5057347;28;19960;-75
2023/12/07 08:46:29;;;;;;;;;;;;;;;;;;5057838;28;19968;-75
2023/12/07 08:48:56;;;;;;;;;;;;;;;;;;5061975;28;19975;-78
2023/12/07 08:51:22;;;;;;;;;;;;;;;;;;5054290;28;20411;-77
2023/12/07 08:53:49;;;;;;;;;;;;;;;;;;5061960;28;19981;-77
2023/12/07 08:56:18;;;;;;;;;;;;;;;;;;5068043;28;20405;-76
2023/12/07 08:58:44;;;;;;;;;;;;;;;;;;5064238;28;19931;-76
2023/12/07 09:01:11;;;;;;;;;;;;;;;;;;5068304;28;19931;-76
2023/12/07 09:03:48;;;;;;;;;;;;;;;;;;5060000;28;19983;-76
2023/12/07 09:06:14;;;;;;;;;;;;;;;;;;5073058;28;19971;-77
2023/12/07 09:08:40;;;;;;;;;;;;;;;;;;5063889;28;20374;-77
2023/12/07 09:11:07;;;;;;;;;;;;;;;;;;5070404;28;19925;-76
2023/12/07 09:13:33;;;;;;;;;;;;;;;;;;5072038;28;20027;-76
2023/12/07 09:16:00;;;;;;;;;;;;;;;;;;5065257;28;19932;-76
2023/12/07 09:18:26;;;;;;;;;;;;;;;;;;5064972;28;20028;-77
2023/12/07 09:20:53;;;;;;;;;;;;;;;;;;5061162;28;19951;-76
2023/12/07 09:23:19;;;;;;;;;;;;;;;;;;5065789;28;20389;-76
2023/12/07 09:25:46;;;;;;;;;;;;;;;;;;5054499;28;20319;-78
2023/12/07 09:28:12;;;;;;;;;;;;;;;;;;5064457;28;20389;-76
2023/12/07 09:30:38;;;;;;;;;;;;;;;;;;5063101;28;19929;-76
2023/12/07 09:33:05;;;;;;;;;;;;;;;;;;5062876;28;19931;-75
2023/12/07 09:35:34;;;;;;;;;;;;;;;;;;5070058;28;19925;-77
2023/12/07 09:38:00;;;;;;;;;;;;;;;;;;5065226;28;19932;-77
2023/12/07 09:40:27;;;;;;;;;;;;;;;;;;5062307;28;20298;-76
2023/12/07 09:42:54;;;;;;;;;;;;;;;;;;5054467;28;19925;-77
2023/12/07 09:45:21;;;;;;;;;;;;;;;;;;5065188;28;19986;-77
2023/12/07 09:47:47;;;;;;;;;;;;;;;;;;5062056;28;20443;-76
2023/12/07 09:50:14;;;;;;;;;;;;;;;;;;5072132;28;19979;-75
2023/12/07 09:52:40;;;;;;;;;;;;;;;;;;5064758;28;19925;-77
2023/12/07 09:55:13;;;;;;;;;;;;;;;;;;5061578;28;19948;-77
2023/12/07 09:57:39;;;;;;;;;;;;;;;;;;5053398;28;20455;-77
2023/12/07 10:00:09;;;;;;;;;;;;;;;;;;5064273;28;19975;-76
2023/12/07 10:02:36;;;;;;;;;;;;;;;;;;5048845;28;20365;-75
2023/12/07 10:05:02;;;;;;;;;;;;;;;;;;5060229;28;19925;-75
2023/12/07 10:07:29;;;;;;;;;;;;;;;;;;5063379;28;19974;-74
2023/12/07 10:09:55;;;;;;;;;;;;;;;;;;5064502;28;19929;-77
2023/12/07 10:12:21;;;;;;;;;;;;;;;;;;5063894;28;19982;-76
2023/12/07 10:14:48;;;;;;;;;;;;;;;;;;5061833;28;19936;-76
2023/12/07 10:17:14;;;;;;;;;;;;;;;;;;5065055;28;19931;-78
2023/12/07 10:19:40;;;;;;;;;;;;;;;;;;5063006;28;19999;-76
2023/12/07 10:22:07;;;;;;;;;;;;;;;;;;5061406;28;19925;-74
2023/12/07 10:24:33;;;;;;;;;;;;;;;;;;5066430;28;19987;-77
2023/12/07 10:27:00;;;;;;;;;;;;;;;;;;5062561;28;19947;-76
2023/12/07 10:29:29;;;;;;;;;;;;;;;;;;5063854;28;19935;-76
2023/12/07 10:31:58;;;;;;;;;;;;;;;;;;5065666;28;19928;-75
2023/12/07 10:34:26;;;;;;;;;;;;;;;;;;5066253;28;20474;-74
2023/12/07 10:36:53;;;;;;;;;;;;;;;;;;5062418;28;19988;-76
2023/12/07 10:39:20;;;;;;;;;;;;;;;;;;5059894;28;19936;-74
2023/12/07 10:41:51;;;;;;;;;;;;;;;;;;5062268;28;19924;-75
2023/12/07 10:44:17;;;;;;;;;;;;;;;;;;5071149;28;19924;-76
2023/12/07 10:46:44;;;;;;;;;;;;;;;;;;5059297;28;19925;-77
2023/12/07 10:49:10;;;;;;;;;;;;;;;;;;5053769;28;19925;-74
2023/12/07 10:51:43;;;;;;;;;;;;;;;;;;5063667;28;19935;-76
2023/12/07 10:54:11;;;;;;;;;;;;;;;;;;5066309;28;20457;-74
2023/12/07 10:56:39;;;;;;;;;;;;;;;;;;5069839;28;20011;-77
2023/12/07 10:59:07;;;;;;;;;;;;;;;;;;5062351;28;20263;-77
2023/12/07 11:01:34;;;;;;;;;;;;;;;;;;5060010;28;19935;-76
2023/12/07 11:04:01;;;;;;;;;;;;;;;;;;5063760;28;20293;-76
2023/12/07 11:06:28;;;;;;;;;;;;;;;;;;5060989;28;19924;-74
2023/12/07 11:08:54;;;;;;;;;;;;;;;;;;5061014;28;19952;-74
2023/12/07 11:11:20;;;;;;;;;;;;;;;;;;5061196;28;20023;-77
2023/12/07 11:13:47;;;;;;;;;;;;;;;;;;5061815;28;20357;-75
2023/12/07 11:16:13;;;;;;;;;;;;;;;;;;5060020;28;19935;-74
2023/12/07 11:18:40;;;;;;;;;;;;;;;;;;5061295;28;19932;-74
2023/12/07 11:21:06;;;;;;;;;;;;;;;;;;5069705;28;20055;-76
2023/12/07 11:23:33;;;;;;;;;;;;;;;;;;5061907;28;19928;-76
2023/12/07 11:25:59;;;;;;;;;;;;;;;;;;5059366;28;19929;-77
2023/12/07 11:28:25;;;;;;;;;;;;;;;;;;5063432;28;20023;-76
2023/12/07 11:30:53;;;;;;;;;;;;;;;;;;5060914;28;20078;-74
2023/12/07 11:33:19;;;;;;;;;;;;;;;;;;5060992;28;19939;-75
2023/12/07 11:35:46;;;;;;;;;;;;;;;;;;5064628;28;19929;-76
2023/12/07 11:38:12;;;;;;;;;;;;;;;;;;5062104;28;19931;-76
2023/12/07 11:40:42;;;;;;;;;;;;;;;;;;5056121;28;20123;-75
2023/12/07 11:43:09;;;;;;;;;;;;;;;;;;5065901;28;19935;-74
2023/12/07 11:45:35;;;;;;;;;;;;;;;;;;5060108;28;19925;-76
2023/12/07 11:48:02;;;;;;;;;;;;;;;;;;5061006;28;19982;-76
2023/12/07 11:50:28;;;;;;;;;;;;;;;;;;5061029;28;20290;-76
2023/12/07 11:52:55;;;;;;;;;;;;;;;;;;5060091;28;19929;-75
2023/12/07 11:55:21;;;;;;;;;;;;;;;;;;5063389;28;19931;-76
2023/12/07 11:57:47;;;;;;;;;;;;;;;;;;5068400;28;19924;-75
2023/12/07 12:00:14;;;;;;;;;;;;;;;;;;5065541;28;20015;-76
2023/12/07 12:02:40;;;;;;;;;;;;;;;;;;5067996;28;19979;-75
2023/12/07 12:05:06;;;;;;;;;;;;;;;;;;5059707;28;19924;-75
2023/12/07 12:07:33;;;;;;;;;;;;;;;;;;5063066;28;19932;-75
2023/12/07 12:09:59;;;;;;;;;;;;;;;;;;5061767;28;20005;-76
2023/12/07 12:12:27;;;;;;;;;;;;;;;;;;5059855;28;19936;-75
2023/12/07 12:14:53;;;;;;;;;;;;;;;;;;5053729;28;19929;-76
2023/12/07 12:17:20;;;;;;;;;;;;;;;;;;5065871;28;20343;-74
2023/12/07 12:19:46;;;;;;;;;;;;;;;;;;5061413;28;20400;-75
2023/12/07 12:22:12;;;;;;;;;;;;;;;;;;5063728;28;19924;-75
2023/12/07 12:24:39;;;;;;;;;;;;;;;;;;5069285;28;19947;-76
2023/12/07 12:27:06;;;;;;;;;;;;;;;;;;5061830;28;19928;-76
2023/12/07 12:29:32;;;;;;;;;;;;;;;;;;5060747;28;19971;-75
2023/12/07 12:32:01;;;;;;;;;;;;;;;;;;5058289;28;19928;-74
2023/12/07 12:34:28;;;;;;;;;;;;;;;;;;5063403;28;19924;-75
2023/12/07 12:36:54;;;;;;;;;;;;;;;;;;5054588;28;20617;-76
2023/12/07 12:39:21;;;;;;;;;;;;;;;;;;5062525;28;19924;-76
2023/12/07 12:41:52;;;;;;;;;;;;;;;;;;5059856;28;19935;-75
2023/12/07 12:44:18;;;;;;;;;;;;;;;;;;5057839;28;19931;-75
2023/12/07 12:46:53;;;;;;;;;;;;;;;;;;5060162;28;19932;-76
2023/12/07 12:49:19;;;;;;;;;;;;;;;;;;5052361;28;19932;-75
2023/12/07 12:51:48;;;;;;;;;;;;;;;;;;5063318;28;19947;-76
2023/12/07 12:54:14;;;;;;;;;;;;;;;;;;5054670;28;19931;-75
2023/12/07 12:56:48;;;;;;;;;;;;;;;;;;5059543;28;20393;-76
2023/12/07 12:59:14;;;;;;;;;;;;;;;;;;5062147;28;19940;-73
2023/12/07 13:01:41;;;;;;;;;;;;;;;;;;5063185;28;19964;-73
2023/12/07 13:04:09;;;;;;;;;;;;;;;;;;5059560;28;19957;-76
2023/12/07 13:06:38;;;;;;;;;;;;;;;;;;5062770;28;19929;-74
2023/12/07 13:09:05;;;;;;;;;;;;;;;;;;5069801;28;19971;-75
2023/12/07 13:11:31;;;;;;;;;;;;;;;;;;5069007;28;19925;-76
2023/12/07 13:13:58;;;;;;;;;;;;;;;;;;5071823;28;19956;-73
2023/12/07 13:16:25;;;;;;;;;;;;;;;;;;5071511;28;19967;-77
2023/12/07 13:18:53;;;;;;;;;;;;;;;;;;5068704;28;19939;-73
2023/12/07 13:21:20;;;;;;;;;;;;;;;;;;5049197;28;19928;-72
2023/12/07 13:23:47;;;;;;;;;;;;;;;;;;5064657;28;19925;-72
2023/12/07 13:26:14;;;;;;;;;;;;;;;;;;5069774;28;19931;-72
2023/12/07 13:28:40;;;;;;;;;;;;;;;;;;5064427;28;20327;-73
2023/12/07 13:31:06;;;;;;;;;;;;;;;;;;5053797;28;20301;-71
2023/12/07 13:33:33;;;;;;;;;;;;;;;;;;5060711;28;19954;-74
2023/12/07 13:36:08;;;;;;;;;;;;;;;;;;5062309;28;20019;-74
2023/12/07 13:38:34;;;;;;;;;;;;;;;;;;5063665;28;20003;-72
2023/12/07 13:41:01;;;;;;;;;;;;;;;;;;5064917;28;19976;-71
2023/12/07 13:43:29;;;;;;;;;;;;;;;;;;5062685;28;19931;-73
2023/12/07 13:45:56;;;;;;;;;;;;;;;;;;5064931;28;19928;-74
2023/12/07 13:48:22;;;;;;;;;;;;;;;;;;5064370;28;19929;-72
2023/12/07 13:50:50;;;;;;;;;;;;;;;;;;5074058;28;19925;-72
2023/12/07 13:53:16;;;;;;;;;;;;;;;;;;5055682;28;19925;-73
2023/12/07 13:55:42;;;;;;;;;;;;;;;;;;5067495;28;19932;-76
2023/12/07 13:58:09;;;;;;;;;;;;;;;;;;5062032;28;20293;-73
2023/12/07 14:00:36;;;;;;;;;;;;;;;;;;5069559;28;19929;-73
2023/12/07 14:03:03;;;;;;;;;;;;;;;;;;5065460;28;20344;-73
2023/12/07 14:05:30;;;;;;;;;;;;;;;;;;5071219;28;20019;-74
2023/12/07 14:07:56;;;;;;;;;;;;;;;;;;5058579;28;19929;-72
2023/12/07 14:10:23;;;;;;;;;;;;;;;;;;5058055;28;20022;-73
2023/12/07 14:12:49;;;;;;;;;;;;;;;;;;5052056;28;19928;-75
2023/12/07 14:15:16;;;;;;;;;;;;;;;;;;5062866;28;19925;-72
2023/12/07 14:17:48;;;;;;;;;;;;;;;;;;5071892;28;19925;-72
2023/12/07 14:20:20;;;;;;;;;;;;;;;;;;5059557;28;19932;-73
2023/12/07 14:23:04;;;;;;;;;;;;;;;;;;5065761;28;19933;-77
2023/12/07 14:25:30;;;;;;;;;;;;;;;;;;5065404;28;19924;-74
2023/12/07 14:27:57;;;;;;;;;;;;;;;;;;5066742;28;19932;-76
2023/12/07 14:30:23;;;;;;;;;;;;;;;;;;5066425;28;19924;-76
2023/12/07 14:32:51;;;;;;;;;;;;;;;;;;5061343;28;20345;-75
2023/12/07 14:35:18;;;;;;;;;;;;;;;;;;5063944;28;19970;-76
2023/12/07 14:37:45;;;;;;;;;;;;;;;;;;5064169;28;20332;-75
2023/12/07 14:40:11;;;;;;;;;;;;;;;;;;5060472;28;19932;-74
2023/12/07 14:42:39;;;;;;;;;;;;;;;;;;5062864;28;19952;-74
2023/12/07 14:45:05;;;;;;;;;;;;;;;;;;5062313;28;19932;-73
2023/12/07 14:47:32;;;;;;;;;;;;;;;;;;5070082;28;19978;-75
2023/12/07 14:49:58;;;;;;;;;;;;;;;;;;5053692;28;19924;-75
2023/12/07 14:52:27;;;;;;;;;;;;;;;;;;5059772;28;19924;-76
2023/12/07 14:54:53;;;;;;;;;;;;;;;;;;5065054;28;19928;-75
2023/12/07 14:57:19;;;;;;;;;;;;;;;;;;5054144;28;19929;-73
2023/12/07 14:59:46;;;;;;;;;;;;;;;;;;5065703;28;19925;-77
2023/12/07 15:02:13;;;;;;;;;;;;;;;;;;5054219;28;19935;-73
2023/12/07 15:04:39;;;;;;;;;;;;;;;;;;5062289;28;19932;-75
2023/12/07 15:07:06;;;;;;;;;;;;;;;;;;5070561;28;19950;-74
2023/12/07 15:09:34;;;;;;;;;;;;;;;;;;5059708;28;19928;-76
2023/12/07 15:12:01;;;;;;;;;;;;;;;;;;5064406;28;20389;-74
2023/12/07 15:14:29;;;;;;;;;;;;;;;;;;5052147;28;23679;-71
2023/12/07 15:17:03;;;;;;;;;;;;;;;;;;5065319;28;19932;-70
2023/12/07 15:19:30;;;;;;;;;;;;;;;;;;5060146;28;19974;-71
2023/12/07 15:21:58;;;;;;;;;;;;;;;;;;5059138;28;19935;-74
2023/12/07 15:24:24;;;;;;;;;;;;;;;;;;5061388;28;19931;-74
2023/12/07 15:27:00;;;;;;;;;;;;;;;;;;5066679;28;20434;-71
2023/12/07 15:29:27;;;;;;;;;;;;;;;;;;5069003;28;19928;-72
2023/12/07 15:31:53;;;;;;;;;;;;;;;;;;5062723;28;19929;-73
2023/12/07 15:34:20;;;;;;;;;;;;;;;;;;5069997;28;19932;-73
2023/12/07 15:36:54;;;;;;;;;;;;;;;;;;5061979;28;19928;-73
2023/12/07 15:39:20;;;;;;;;;;;;;;;;;;5064338;28;19936;-74
2023/12/07 15:41:47;;;;;;;;;;;;;;;;;;5063884;28;20019;-74
2023/12/07 15:44:13;;;;;;;;;;;;;;;;;;5061410;28;19978;-74
2023/12/07 15:46:47;;;;;;;;;;;;;;;;;;5060052;28;20341;-72
2023/12/07 15:49:14;;;;;;;;;;;;;;;;;;5061394;28;20465;-74
2023/12/07 15:51:40;;;;;;;;;;;;;;;;;;5062135;28;19936;-76
2023/12/07 15:54:06;;;;;;;;;;;;;;;;;;5059758;28;20023;-77
2023/12/07 15:56:33;;;;;;;;;;;;;;;;;;5060850;28;20296;-76
2023/12/07 15:58:59;;;;;;;;;;;;;;;;;;5062776;28;19924;-74
2023/12/07 16:01:26;;;;;;;;;;;;;;;;;;5059984;28;20015;-76
2023/12/07 16:03:52;;;;;;;;;;;;;;;;;;5061879;28;20292;-75
2023/12/07 16:06:19;;;;;;;;;;;;;;;;;;5057309;28;19932;-75
2023/12/07 16:08:45;;;;;;;;;;;;;;;;;;5064764;28;19929;-76
2023/12/07 16:11:12;;;;;;;;;;;;;;;;;;5060467;28;20019;-74
2023/12/07 16:13:38;;;;;;;;;;;;;;;;;;5063428;28;19925;-75
2023/12/07 16:16:05;;;;;;;;;;;;;;;;;;5060361;28;20043;-75
2023/12/07 16:18:31;;;;;;;;;;;;;;;;;;5064170;28;19933;-77
2023/12/07 16:20:57;;;;;;;;;;;;;;;;;;5065764;28;19967;-75
2023/12/07 16:23:24;;;;;;;;;;;;;;;;;;5055981;28;20023;-76
2023/12/07 16:25:50;;;;;;;;;;;;;;;;;;5043837;28;19954;-75
2023/12/07 16:28:17;;;;;;;;;;;;;;;;;;5064243;28;19947;-75
2023/12/07 16:30:43;;;;;;;;;;;;;;;;;;5062784;28;19936;-75
2023/12/07 16:33:14;;;;;;;;;;;;;;;;;;5066604;28;19932;-74
2023/12/07 16:35:40;;;;;;;;;;;;;;;;;;5063800;28;19924;-73
2023/12/07 16:38:06;;;;;;;;;;;;;;;;;;5057902;28;19929;-76
2023/12/07 16:40:33;;;;;;;;;;;;;;;;;;5060306;28;19924;-76
2023/12/07 16:42:59;;;;;;;;;;;;;;;;;;5066132;28;19925;-76